sensor_id;sensor_type;location;lat;lon;timestamp;pressure;altitude;pressure_sealevel;temperature;humidity
46710;BME280;32442;51.514;-0.178;2023-03-18T00:00:21;100259.00;;;22.14;44.93
46710;BME280;32442;51.514;-0.178;2023-03-18T00:02:48;100254.22;;;22.15;45.02
46710;BME280;32442;51.514;-0.178;2023-03-18T00:05:15;100253.88;;;22.16;44.61
46710;BME280;32442;51.514;-0.178;2023-03-18T00:07:42;100251.88;;;22.17;44.50
46710;BME280;32442;51.514;-0.178;2023-03-18T00:10:09;100250.72;;;22.18;44.78
46710;BME280;32442;51.514;-0.178;2023-03-18T00:12:37;100252.38;;;22.19;45.05
46710;BME280;32442;51.514;-0.178;2023-03-18T00:15:06;100257.16;;;22.18;44.93
46710;BME280;32442;51.514;-0.178;2023-03-18T00:17:33;100261.66;;;22.20;44.89
46710;BME280;32442;51.514;-0.178;2023-03-18T00:20:00;100255.19;;;22.19;44.71
46710;BME280;32442;51.514;-0.178;2023-03-18T00:22:35;100264.47;;;22.20;45.29
46710;BME280;32442;51.514;-0.178;2023-03-18T00:25:03;100251.53;;;22.18;45.13
46710;BME280;32442;51.514;-0.178;2023-03-18T00:27:30;100249.56;;;22.19;45.02
46710;BME280;32442;51.514;-0.178;2023-03-18T00:29:57;100248.72;;;22.18;44.86
46710;BME280;32442;51.514;-0.178;2023-03-18T00:32:25;100252.38;;;22.19;45.07
46710;BME280;32442;51.514;-0.178;2023-03-18T00:34:52;100249.06;;;22.17;45.30
46710;BME280;32442;51.514;-0.178;2023-03-18T00:37:19;100249.88;;;22.17;45.28
46710;BME280;32442;51.514;-0.178;2023-03-18T00:39:59;100247.44;;;22.16;45.71
46710;BME280;32442;51.514;-0.178;2023-03-18T00:42:35;100245.75;;;22.15;45.32
46710;BME280;32442;51.514;-0.178;2023-03-18T00:45:05;100243.28;;;22.13;45.62
46710;BME280;32442;51.514;-0.178;2023-03-18T00:47:32;100255.38;;;22.14;45.88
46710;BME280;32442;51.514;-0.178;2023-03-18T00:50:00;100243.63;;;22.12;46.30
46710;BME280;32442;51.514;-0.178;2023-03-18T00:52:26;100256.03;;;22.11;46.32
46710;BME280;32442;51.514;-0.178;2023-03-18T00:54:56;100254.88;;;22.12;46.88
46710;BME280;32442;51.514;-0.178;2023-03-18T00:57:23;100251.25;;;22.11;46.65
46710;BME280;32442;51.514;-0.178;2023-03-18T00:59:50;100254.38;;;22.10;46.79
46710;BME280;32442;51.514;-0.178;2023-03-18T01:02:17;100257.53;;;22.08;46.68
46710;BME280;32442;51.514;-0.178;2023-03-18T01:04:44;100253.88;;;22.08;46.91
46710;BME280;32442;51.514;-0.178;2023-03-18T01:07:11;100255.06;;;22.07;46.81
46710;BME280;32442;51.514;-0.178;2023-03-18T01:09:38;100256.22;;;22.06;46.61
46710;BME280;32442;51.514;-0.178;2023-03-18T01:12:07;100254.09;;;22.03;46.65
46710;BME280;32442;51.514;-0.178;2023-03-18T01:14:34;100254.09;;;22.03;46.72
46710;BME280;32442;51.514;-0.178;2023-03-18T01:17:02;100251.09;;;21.99;47.10
46710;BME280;32442;51.514;-0.178;2023-03-18T01:19:28;100247.47;;;21.99;46.99
46710;BME280;32442;51.514;-0.178;2023-03-18T01:21:55;100249.78;;;21.97;47.35
46710;BME280;32442;51.514;-0.178;2023-03-18T01:24:22;100247.31;;;21.95;47.76
46710;BME280;32442;51.514;-0.178;2023-03-18T01:26:49;100238.41;;;21.93;47.88
46710;BME280;32442;51.514;-0.178;2023-03-18T01:29:16;100240.38;;;21.93;48.24
46710;BME280;32442;51.514;-0.178;2023-03-18T01:31:43;100236.56;;;21.89;48.38
46710;BME280;32442;51.514;-0.178;2023-03-18T01:34:10;100245.31;;;21.87;48.60
46710;BME280;32442;51.514;-0.178;2023-03-18T01:36:37;100239.69;;;21.87;48.82
46710;BME280;32442;51.514;-0.178;2023-03-18T01:39:04;100235.56;;;21.85;49.01
46710;BME280;32442;51.514;-0.178;2023-03-18T01:41:31;100233.91;;;21.84;49.68
46710;BME280;32442;51.514;-0.178;2023-03-18T01:43:58;100226.97;;;21.81;49.22
46710;BME280;32442;51.514;-0.178;2023-03-18T01:46:37;100226.50;;;21.79;49.81
46710;BME280;32442;51.514;-0.178;2023-03-18T01:49:10;100231.97;;;21.76;49.91
46710;BME280;32442;51.514;-0.178;2023-03-18T01:51:40;100221.03;;;21.74;50.00
46710;BME280;32442;51.514;-0.178;2023-03-18T01:54:08;100220.38;;;21.68;50.24
46710;BME280;32442;51.514;-0.178;2023-03-18T01:56:38;100226.84;;;21.69;50.28
46710;BME280;32442;51.514;-0.178;2023-03-18T01:59:05;100221.72;;;21.62;50.14
46710;BME280;32442;51.514;-0.178;2023-03-18T02:01:36;100219.56;;;21.59;49.95
46710;BME280;32442;51.514;-0.178;2023-03-18T02:04:05;100226.19;;;21.55;49.86
46710;BME280;32442;51.514;-0.178;2023-03-18T02:06:32;100224.22;;;21.55;49.89
46710;BME280;32442;51.514;-0.178;2023-03-18T02:09:00;100222.91;;;21.53;49.72
46710;BME280;32442;51.514;-0.178;2023-03-18T02:11:27;100218.09;;;21.53;50.32
46710;BME280;32442;51.514;-0.178;2023-03-18T02:13:56;100228.34;;;21.49;50.15
46710;BME280;32442;51.514;-0.178;2023-03-18T02:16:24;100219.75;;;21.46;50.24
46710;BME280;32442;51.514;-0.178;2023-03-18T02:18:58;100225.22;;;21.42;50.58
46710;BME280;32442;51.514;-0.178;2023-03-18T02:24:11;100219.09;;;21.40;50.67
46710;BME280;32442;51.514;-0.178;2023-03-18T02:26:53;100218.25;;;21.40;50.68
46710;BME280;32442;51.514;-0.178;2023-03-18T02:29:22;100212.50;;;21.36;50.87
46710;BME280;32442;51.514;-0.178;2023-03-18T02:31:50;100211.66;;;21.36;50.63
46710;BME280;32442;51.514;-0.178;2023-03-18T02:34:17;100214.00;;;21.34;50.73
46710;BME280;32442;51.514;-0.178;2023-03-18T02:36:44;100218.78;;;21.33;50.88
46710;BME280;32442;51.514;-0.178;2023-03-18T02:39:13;100211.81;;;21.30;50.92
46710;BME280;32442;51.514;-0.178;2023-03-18T02:41:40;100211.34;;;21.28;50.74
46710;BME280;32442;51.514;-0.178;2023-03-18T02:44:06;100212.50;;;21.27;50.74
46710;BME280;32442;51.514;-0.178;2023-03-18T02:49:01;100217.28;;;21.27;50.94
46710;BME280;32442;51.514;-0.178;2023-03-18T02:51:29;100213.16;;;21.33;51.03
46710;BME280;32442;51.514;-0.178;2023-03-18T02:53:57;100210.19;;;21.29;50.88
46710;BME280;32442;51.514;-0.178;2023-03-18T02:56:26;100222.25;;;21.30;51.10
46710;BME280;32442;51.514;-0.178;2023-03-18T02:58:52;100220.94;;;21.27;50.74
46710;BME280;32442;51.514;-0.178;2023-03-18T03:01:19;100218.63;;;21.21;50.86
46710;BME280;32442;51.514;-0.178;2023-03-18T03:03:47;100220.63;;;21.20;50.86
46710;BME280;32442;51.514;-0.178;2023-03-18T03:06:14;100216.47;;;21.18;50.88
46710;BME280;32442;51.514;-0.178;2023-03-18T03:08:41;100217.63;;;21.17;51.01
46710;BME280;32442;51.514;-0.178;2023-03-18T03:11:08;100210.69;;;21.14;50.87
46710;BME280;32442;51.514;-0.178;2023-03-18T03:13:36;100214.66;;;21.13;51.15
46710;BME280;32442;51.514;-0.178;2023-03-18T03:16:03;100217.78;;;21.12;50.85
46710;BME280;32442;51.514;-0.178;2023-03-18T03:18:30;100225.88;;;21.13;51.13
46710;BME280;32442;51.514;-0.178;2023-03-18T03:20:57;100223.72;;;21.10;50.83
46710;BME280;32442;51.514;-0.178;2023-03-18T03:23:23;100220.38;;;21.08;51.08
46710;BME280;32442;51.514;-0.178;2023-03-18T03:25:50;100220.75;;;21.07;50.84
46710;BME280;32442;51.514;-0.178;2023-03-18T03:28:17;100224.19;;;21.04;51.00
46710;BME280;32442;51.514;-0.178;2023-03-18T03:30:44;100227.00;;;21.04;51.10
46710;BME280;32442;51.514;-0.178;2023-03-18T03:33:11;100226.84;;;21.00;51.00
46710;BME280;32442;51.514;-0.178;2023-03-18T03:35:38;100226.34;;;20.98;50.83
46710;BME280;32442;51.514;-0.178;2023-03-18T03:38:05;100231.97;;;20.98;50.82
46710;BME280;32442;51.514;-0.178;2023-03-18T03:40:32;100233.13;;;20.97;50.93
46710;BME280;32442;51.514;-0.178;2023-03-18T03:42:59;100234.28;;;20.96;50.84
46710;BME280;32442;51.514;-0.178;2023-03-18T03:45:26;100227.00;;;20.95;51.00
46710;BME280;32442;51.514;-0.178;2023-03-18T03:47:52;100227.34;;;20.94;51.07
46710;BME280;32442;51.514;-0.178;2023-03-18T03:50:19;100238.06;;;20.92;51.25
46710;BME280;32442;51.514;-0.178;2023-03-18T03:52:47;100231.13;;;20.89;50.87
46710;BME280;32442;51.514;-0.178;2023-03-18T03:55:15;100235.94;;;20.89;50.82
46710;BME280;32442;51.514;-0.178;2023-03-18T03:57:43;100239.06;;;20.87;50.86
46710;BME280;32442;51.514;-0.178;2023-03-18T04:00:12;100237.38;;;20.86;51.15
46710;BME280;32442;51.514;-0.178;2023-03-18T04:02:40;100230.47;;;20.83;50.89
46710;BME280;32442;51.514;-0.178;2023-03-18T04:05:09;100239.72;;;20.84;50.87
46710;BME280;32442;51.514;-0.178;2023-03-18T04:07:37;100242.84;;;20.82;50.82
46710;BME280;32442;51.514;-0.178;2023-03-18T04:10:04;100240.34;;;20.81;50.89
46710;BME280;32442;51.514;-0.178;2023-03-18T04:12:31;100237.91;;;20.79;51.09
46710;BME280;32442;51.514;-0.178;2023-03-18T04:14:58;100239.03;;;20.78;50.92
46710;BME280;32442;51.514;-0.178;2023-03-18T04:17:24;100239.34;;;20.77;51.28
46710;BME280;32442;51.514;-0.178;2023-03-18T04:19:51;100242.16;;;20.77;51.14
46710;BME280;32442;51.514;-0.178;2023-03-18T04:22:18;100240.84;;;20.74;51.16
46710;BME280;32442;51.514;-0.178;2023-03-18T04:24:45;100237.22;;;20.74;51.29
46710;BME280;32442;51.514;-0.178;2023-03-18T04:27:11;100240.03;;;20.74;51.03
46710;BME280;32442;51.514;-0.178;2023-03-18T04:29:38;100233.56;;;20.73;51.02
46710;BME280;32442;51.514;-0.178;2023-03-18T04:32:05;100238.72;;;20.71;51.14
46710;BME280;32442;51.514;-0.178;2023-03-18T04:34:32;100249.41;;;20.69;51.59
46710;BME280;32442;51.514;-0.178;2023-03-18T04:36:59;100241.00;;;20.69;51.68
46710;BME280;32442;51.514;-0.178;2023-03-18T04:39:25;100242.16;;;20.68;51.75
46710;BME280;32442;51.514;-0.178;2023-03-18T04:41:52;100245.31;;;20.67;51.73
46710;BME280;32442;51.514;-0.178;2023-03-18T04:44:20;100246.44;;;20.66;51.24
46710;BME280;32442;51.514;-0.178;2023-03-18T04:46:46;100243.13;;;20.64;51.79
46710;BME280;32442;51.514;-0.178;2023-03-18T04:49:13;100233.56;;;20.65;51.43
46710;BME280;32442;51.514;-0.178;2023-03-18T04:51:40;100235.06;;;20.62;51.96
46710;BME280;32442;51.514;-0.178;2023-03-18T04:54:07;100241.81;;;20.61;51.67
46710;BME280;32442;51.514;-0.178;2023-03-18T04:56:33;100240.47;;;20.59;51.76
46710;BME280;32442;51.514;-0.178;2023-03-18T04:59:00;100242.44;;;20.58;51.76
46710;BME280;32442;51.514;-0.178;2023-03-18T05:01:27;100237.66;;;20.59;51.71
46710;BME280;32442;51.514;-0.178;2023-03-18T05:03:54;100246.44;;;20.57;51.80
46710;BME280;32442;51.514;-0.178;2023-03-18T05:06:21;100239.16;;;20.56;51.65
46710;BME280;32442;51.514;-0.178;2023-03-18T05:08:48;100243.09;;;20.55;51.53
46710;BME280;32442;51.514;-0.178;2023-03-18T05:11:16;100235.53;;;20.56;52.12
46710;BME280;32442;51.514;-0.178;2023-03-18T05:13:43;100237.50;;;20.55;51.90
46710;BME280;32442;51.514;-0.178;2023-03-18T05:16:10;100238.63;;;20.54;52.35
46710;BME280;32442;51.514;-0.178;2023-03-18T05:18:37;100242.94;;;20.52;52.16
46710;BME280;32442;51.514;-0.178;2023-03-18T05:21:04;100230.88;;;20.51;52.30
46710;BME280;32442;51.514;-0.178;2023-03-18T05:23:39;100227.25;;;20.51;51.97
46710;BME280;32442;51.514;-0.178;2023-03-18T05:26:06;100225.28;;;20.51;51.84
46710;BME280;32442;51.514;-0.178;2023-03-18T05:28:33;100221.94;;;20.49;52.32
46710;BME280;32442;51.514;-0.178;2023-03-18T05:31:00;100214.72;;;20.48;51.99
46710;BME280;32442;51.514;-0.178;2023-03-18T05:33:36;100214.72;;;20.48;51.95
46710;BME280;32442;51.514;-0.178;2023-03-18T05:36:03;100215.84;;;20.47;51.87
46710;BME280;32442;51.514;-0.178;2023-03-18T05:38:30;100208.56;;;20.46;52.20
46710;BME280;32442;51.514;-0.178;2023-03-18T05:40:57;100211.69;;;20.45;51.98
46710;BME280;32442;51.514;-0.178;2023-03-18T05:43:23;100220.47;;;20.43;52.26
46710;BME280;32442;51.514;-0.178;2023-03-18T05:45:51;100220.47;;;20.43;52.31
46710;BME280;32442;51.514;-0.178;2023-03-18T05:48:18;100227.75;;;20.44;52.08
46710;BME280;32442;51.514;-0.178;2023-03-18T05:50:45;100223.59;;;20.41;52.31
46710;BME280;32442;51.514;-0.178;2023-03-18T05:53:12;100219.94;;;20.41;52.36
46710;BME280;32442;51.514;-0.178;2023-03-18T05:55:41;100219.13;;;20.40;51.98
46710;BME280;32442;51.514;-0.178;2023-03-18T05:58:08;100218.63;;;20.38;52.06
46710;BME280;32442;51.514;-0.178;2023-03-18T06:00:35;100221.44;;;20.38;52.53
46710;BME280;32442;51.514;-0.178;2023-03-18T06:03:03;100212.50;;;20.36;52.55
46710;BME280;32442;51.514;-0.178;2023-03-18T06:05:30;100220.94;;;20.36;52.60
46710;BME280;32442;51.514;-0.178;2023-03-18T06:07:57;100220.94;;;20.36;52.31
46710;BME280;32442;51.514;-0.178;2023-03-18T06:10:25;100222.06;;;20.35;52.42
46710;BME280;32442;51.514;-0.178;2023-03-18T06:12:51;100232.50;;;20.35;52.32
46710;BME280;32442;51.514;-0.178;2023-03-18T06:15:20;100238.41;;;20.33;52.28
46710;BME280;32442;51.514;-0.178;2023-03-18T06:17:47;100241.53;;;20.32;52.27
46710;BME280;32442;51.514;-0.178;2023-03-18T06:20:14;100244.34;;;20.32;52.31
46710;BME280;32442;51.514;-0.178;2023-03-18T06:22:41;100247.50;;;20.30;52.57
46710;BME280;32442;51.514;-0.178;2023-03-18T06:25:09;100249.47;;;20.30;52.37
46710;BME280;32442;51.514;-0.178;2023-03-18T06:27:36;100247.25;;;20.27;52.49
46710;BME280;32442;51.514;-0.178;2023-03-18T06:30:03;100248.09;;;20.27;52.52
46710;BME280;32442;51.514;-0.178;2023-03-18T06:32:30;100246.00;;;20.33;52.78
46710;BME280;32442;51.514;-0.178;2023-03-18T06:34:58;100244.97;;;20.29;52.74
46710;BME280;32442;51.514;-0.178;2023-03-18T06:37:25;100251.09;;;20.31;52.70
46710;BME280;32442;51.514;-0.178;2023-03-18T06:39:52;100250.59;;;20.29;52.81
46710;BME280;32442;51.514;-0.178;2023-03-18T06:42:18;100250.41;;;20.25;52.52
46710;BME280;32442;51.514;-0.178;2023-03-18T06:44:45;100250.72;;;20.24;52.59
46710;BME280;32442;51.514;-0.178;2023-03-18T06:47:16;100263.09;;;20.23;52.37
46710;BME280;32442;51.514;-0.178;2023-03-18T06:49:44;100257.81;;;20.21;52.53
46710;BME280;32442;51.514;-0.178;2023-03-18T06:52:11;100260.63;;;20.21;52.66
46710;BME280;32442;51.514;-0.178;2023-03-18T06:54:39;100264.22;;;20.22;52.36
46710;BME280;32442;51.514;-0.178;2023-03-18T06:57:06;100258.13;;;20.20;52.63
46710;BME280;32442;51.514;-0.178;2023-03-18T06:59:33;100268.00;;;20.17;52.57
46710;BME280;32442;51.514;-0.178;2023-03-18T07:02:01;100262.41;;;20.17;52.70
46710;BME280;32442;51.514;-0.178;2023-03-18T07:04:28;100268.84;;;20.18;52.60
46710;BME280;32442;51.514;-0.178;2023-03-18T07:06:55;100261.91;;;20.15;52.67
46710;BME280;32442;51.514;-0.178;2023-03-18T07:09:23;100269.50;;;20.15;52.71
46710;BME280;32442;51.514;-0.178;2023-03-18T07:11:49;100279.88;;;20.14;52.45
46710;BME280;32442;51.514;-0.178;2023-03-18T07:14:16;100276.25;;;20.14;52.78
46710;BME280;32442;51.514;-0.178;2023-03-18T07:16:43;100280.53;;;20.11;52.54
46710;BME280;32442;51.514;-0.178;2023-03-18T07:19:11;100282.50;;;20.11;52.97
46710;BME280;32442;51.514;-0.178;2023-03-18T07:21:38;100283.34;;;20.11;52.56
46710;BME280;32442;51.514;-0.178;2023-03-18T07:24:06;100282.81;;;20.09;52.69
46710;BME280;32442;51.514;-0.178;2023-03-18T07:26:32;100281.66;;;20.10;52.49
46710;BME280;32442;51.514;-0.178;2023-03-18T07:28:59;100273.56;;;20.09;52.73
46710;BME280;32442;51.514;-0.178;2023-03-18T07:31:27;100270.28;;;20.07;52.94
46710;BME280;32442;51.514;-0.178;2023-03-18T07:33:53;100280.66;;;20.06;53.00
46710;BME280;32442;51.514;-0.178;2023-03-18T07:36:20;100280.66;;;20.06;52.83
46710;BME280;32442;51.514;-0.178;2023-03-18T07:38:47;100286.28;;;20.06;52.74
46710;BME280;32442;51.514;-0.178;2023-03-18T07:41:14;100291.88;;;20.06;52.75
46710;BME280;32442;51.514;-0.178;2023-03-18T07:43:41;100286.59;;;20.05;52.93
46710;BME280;32442;51.514;-0.178;2023-03-18T07:46:08;100286.94;;;20.03;52.85
46710;BME280;32442;51.514;-0.178;2023-03-18T07:48:35;100296.13;;;20.04;53.04
46710;BME280;32442;51.514;-0.178;2023-03-18T07:51:02;100290.53;;;20.04;53.21
46710;BME280;32442;51.514;-0.178;2023-03-18T07:53:29;100290.03;;;20.02;53.03
46710;BME280;32442;51.514;-0.178;2023-03-18T07:55:56;100292.84;;;20.02;53.23
46710;BME280;32442;51.514;-0.178;2023-03-18T07:58:22;100292.84;;;20.02;53.39
46710;BME280;32442;51.514;-0.178;2023-03-18T08:00:50;100294.00;;;20.01;53.32
46710;BME280;32442;51.514;-0.178;2023-03-18T08:03:17;100298.75;;;20.00;53.42
46710;BME280;32442;51.514;-0.178;2023-03-18T08:05:44;100298.28;;;19.98;53.30
46710;BME280;32442;51.514;-0.178;2023-03-18T08:08:11;100301.91;;;19.98;53.42
46710;BME280;32442;51.514;-0.178;2023-03-18T08:10:38;100303.06;;;19.97;53.62
46710;BME280;32442;51.514;-0.178;2023-03-18T08:13:04;100305.84;;;19.97;53.44
46710;BME280;32442;51.514;-0.178;2023-03-18T08:15:31;100305.84;;;19.97;53.78
46710;BME280;32442;51.514;-0.178;2023-03-18T08:17:58;100301.38;;;19.96;53.97
46710;BME280;32442;51.514;-0.178;2023-03-18T08:20:25;100309.81;;;19.96;53.94
46710;BME280;32442;51.514;-0.178;2023-03-18T08:22:52;100312.59;;;19.96;53.87
46710;BME280;32442;51.514;-0.178;2023-03-18T08:25:19;100302.53;;;19.95;53.87
46710;BME280;32442;51.514;-0.178;2023-03-18T08:27:47;100312.59;;;19.96;53.92
46710;BME280;32442;51.514;-0.178;2023-03-18T08:30:14;100310.09;;;19.95;54.07
46710;BME280;32442;51.514;-0.178;2023-03-18T08:32:42;100305.69;;;19.94;53.70
46710;BME280;32442;51.514;-0.178;2023-03-18T08:35:09;100304.00;;;19.93;53.72
46710;BME280;32442;51.514;-0.178;2023-03-18T08:37:36;100305.16;;;19.92;53.91
46710;BME280;32442;51.514;-0.178;2023-03-18T08:40:03;100305.47;;;19.90;54.13
46710;BME280;32442;51.514;-0.178;2023-03-18T08:42:30;100298.22;;;19.89;53.98
46710;BME280;32442;51.514;-0.178;2023-03-18T08:44:57;100299.03;;;19.90;53.69
46710;BME280;32442;51.514;-0.178;2023-03-18T08:47:23;100295.41;;;19.89;53.74
46710;BME280;32442;51.514;-0.178;2023-03-18T08:49:50;100294.91;;;19.87;54.13
46710;BME280;32442;51.514;-0.178;2023-03-18T08:52:17;100299.97;;;19.85;53.83
46710;BME280;32442;51.514;-0.178;2023-03-18T08:54:44;100294.06;;;19.87;53.90
46710;BME280;32442;51.514;-0.178;2023-03-18T08:57:11;100294.38;;;19.85;53.72
46710;BME280;32442;51.514;-0.178;2023-03-18T08:59:38;100293.22;;;19.86;54.03
46710;BME280;32442;51.514;-0.178;2023-03-18T09:02:04;100291.56;;;19.85;54.07
46710;BME280;32442;51.514;-0.178;2023-03-18T09:04:31;100297.19;;;19.85;53.98
46710;BME280;32442;51.514;-0.178;2023-03-18T09:06:58;100298.00;;;19.86;54.11
46710;BME280;32442;51.514;-0.178;2023-03-18T09:09:26;100298.00;;;19.86;54.17
46710;BME280;32442;51.514;-0.178;2023-03-18T09:12:08;100292.41;;;19.86;54.48
46710;BME280;32442;51.514;-0.178;2023-03-18T09:14:34;100292.75;;;19.84;54.19
46710;BME280;32442;51.514;-0.178;2023-03-18T09:17:01;100296.69;;;19.83;54.54
46710;BME280;32442;51.514;-0.178;2023-03-18T09:19:28;100299.50;;;19.83;54.25
46710;BME280;32442;51.514;-0.178;2023-03-18T09:21:55;100300.31;;;19.84;54.39
46710;BME280;32442;51.514;-0.178;2023-03-18T09:24:21;100304.44;;;19.86;54.31
46710;BME280;32442;51.514;-0.178;2023-03-18T09:26:48;100294.06;;;19.87;54.41
46710;BME280;32442;51.514;-0.178;2023-03-18T09:29:15;100298.91;;;19.95;54.40
46710;BME280;32442;51.514;-0.178;2023-03-18T09:31:41;100297.56;;;19.92;54.01
46710;BME280;32442;51.514;-0.178;2023-03-18T09:34:08;100302.06;;;19.71;52.51
46710;BME280;32442;51.514;-0.178;2023-03-18T09:36:39;100296.44;;;19.71;52.86
46710;BME280;32442;51.514;-0.178;2023-03-18T09:39:06;100295.75;;;19.66;53.53
46710;BME280;32442;51.514;-0.178;2023-03-18T09:44:15;100288.16;;;19.66;53.26
46710;BME280;32442;51.514;-0.178;2023-03-18T09:52:05;100297.06;;;19.68;53.78
46710;BME280;32442;51.514;-0.178;2023-03-18T09:57:10;100296.22;;;19.68;53.64
46710;BME280;32442;51.514;-0.178;2023-03-18T09:59:43;100301.53;;;19.69;53.84
46710;BME280;32442;51.514;-0.178;2023-03-18T10:02:19;100300.69;;;19.69;53.40
46710;BME280;32442;51.514;-0.178;2023-03-18T10:04:49;100296.75;;;19.70;54.06
46710;BME280;32442;51.514;-0.178;2023-03-18T10:07:19;100302.38;;;19.70;53.67
46710;BME280;32442;51.514;-0.178;2023-03-18T10:09:52;100301.53;;;19.69;53.74
46710;BME280;32442;51.514;-0.178;2023-03-18T10:12:29;100302.06;;;19.71;53.61
46710;BME280;32442;51.514;-0.178;2023-03-18T10:15:03;100313.63;;;19.78;53.98
46710;BME280;32442;51.514;-0.178;2023-03-18T10:17:39;100314.28;;;19.75;53.83
46710;BME280;32442;51.514;-0.178;2023-03-18T10:20:30;100307.19;;;19.78;53.47
46710;BME280;32442;51.514;-0.178;2023-03-18T10:33:12;100304.63;;;20.12;51.66
46710;BME280;32442;51.514;-0.178;2023-03-18T10:40:45;100305.22;;;20.31;51.73
46710;BME280;32442;51.514;-0.178;2023-03-18T10:43:15;100307.91;;;20.36;52.05
46710;BME280;32442;51.514;-0.178;2023-03-18T10:45:43;100315.53;;;20.45;51.72
46710;BME280;32442;51.514;-0.178;2023-03-18T10:53:22;100308.53;;;20.64;50.78
46710;BME280;32442;51.514;-0.178;2023-03-18T10:58:19;100310.22;;;20.74;50.43
46710;BME280;32442;51.514;-0.178;2023-03-18T11:00:45;100305.28;;;20.79;50.48
46710;BME280;32442;51.514;-0.178;2023-03-18T11:03:17;100304.28;;;20.84;50.32
46710;BME280;32442;51.514;-0.178;2023-03-18T11:05:44;100307.75;;;20.90;49.86
46710;BME280;32442;51.514;-0.178;2023-03-18T11:08:58;100305.97;;;20.94;49.86
46710;BME280;32442;51.514;-0.178;2023-03-18T11:11:43;100312.25;;;20.99;49.53
46710;BME280;32442;51.514;-0.178;2023-03-18T11:13:50;100312.09;;;21.04;49.62
46710;BME280;32442;51.514;-0.178;2023-03-18T11:16:22;100313.91;;;21.09;49.44
46710;BME280;32442;51.514;-0.178;2023-03-18T11:18:51;100311.00;;;21.14;49.26
46710;BME280;32442;51.514;-0.178;2023-03-18T11:21:18;100303.56;;;21.18;49.35
46710;BME280;32442;51.514;-0.178;2023-03-18T11:23:51;100312.66;;;21.23;48.84
46710;BME280;32442;51.514;-0.178;2023-03-18T11:26:52;100302.56;;;21.31;48.71
46710;BME280;32442;51.514;-0.178;2023-03-18T11:29:24;100312.19;;;21.39;48.41
46710;BME280;32442;51.514;-0.178;2023-03-18T11:31:55;100319.28;;;21.45;48.32
46710;BME280;32442;51.514;-0.178;2023-03-18T11:34:25;100311.03;;;21.48;48.48
46710;BME280;32442;51.514;-0.178;2023-03-18T11:36:56;100305.72;;;21.55;48.41
46710;BME280;32442;51.514;-0.178;2023-03-18T11:39:28;100317.97;;;21.59;48.13
46710;BME280;32442;51.514;-0.178;2023-03-18T11:41:55;100310.03;;;21.61;47.79
46710;BME280;32442;51.514;-0.178;2023-03-18T11:44:25;100312.19;;;21.64;47.97
46710;BME280;32442;51.514;-0.178;2023-03-18T11:46:55;100310.69;;;21.67;47.66
46710;BME280;32442;51.514;-0.178;2023-03-18T11:49:25;100307.22;;;21.70;47.81
46710;BME280;32442;51.514;-0.178;2023-03-18T11:57:10;100312.69;;;21.75;47.18
46710;BME280;32442;51.514;-0.178;2023-03-18T12:04:58;100309.34;;;21.82;46.83
46710;BME280;32442;51.514;-0.178;2023-03-18T12:07:38;100309.34;;;21.82;46.81
46710;BME280;32442;51.514;-0.178;2023-03-18T12:10:25;100306.22;;;21.83;46.54
46710;BME280;32442;51.514;-0.178;2023-03-18T12:20:40;100307.19;;;21.87;46.56
46710;BME280;32442;51.514;-0.178;2023-03-18T12:31:19;100308.03;;;21.88;46.18
46710;BME280;32442;51.514;-0.178;2023-03-18T12:33:53;100312.50;;;21.89;46.37
46710;BME280;32442;51.514;-0.178;2023-03-18T12:46:46;100311.84;;;21.83;46.06
46710;BME280;32442;51.514;-0.178;2023-03-18T12:49:36;100311.84;;;21.83;45.89
46710;BME280;32442;51.514;-0.178;2023-03-18T12:52:05;100310.03;;;21.79;46.31
46710;BME280;32442;51.514;-0.178;2023-03-18T12:54:42;100313.16;;;21.77;45.90
46710;BME280;32442;51.514;-0.178;2023-03-18T12:57:19;100314.50;;;21.80;46.41
46710;BME280;32442;51.514;-0.178;2023-03-18T12:59:51;100324.75;;;21.84;46.26
46710;BME280;32442;51.514;-0.178;2023-03-18T13:05:05;100316.63;;;21.91;45.74
46710;BME280;32442;51.514;-0.178;2023-03-18T13:07:42;100317.16;;;21.93;45.66
46710;BME280;32442;51.514;-0.178;2023-03-18T13:10:21;100317.44;;;21.92;45.82
46710;BME280;32442;51.514;-0.178;2023-03-18T13:12:52;100320.25;;;21.92;45.60
46710;BME280;32442;51.514;-0.178;2023-03-18T13:15:24;100324.75;;;21.93;45.58
46710;BME280;32442;51.514;-0.178;2023-03-18T13:17:54;100325.25;;;21.95;45.46
46710;BME280;32442;51.514;-0.178;2023-03-18T13:20:23;100329.72;;;21.96;45.63
46710;BME280;32442;51.514;-0.178;2023-03-18T13:30:34;100335.81;;;22.06;45.94
46710;BME280;32442;51.514;-0.178;2023-03-18T13:41:35;100339.44;;;22.15;45.63
46710;BME280;32442;51.514;-0.178;2023-03-18T13:43:29;100339.94;;;22.17;45.35
46710;BME280;32442;51.514;-0.178;2023-03-18T13:45:57;100336.78;;;22.19;45.14
46710;BME280;32442;51.514;-0.178;2023-03-18T13:48:31;100348.19;;;22.23;45.11
46710;BME280;32442;51.514;-0.178;2023-03-18T13:51:18;100347.03;;;22.24;45.12
46710;BME280;32442;51.514;-0.178;2023-03-18T13:53:46;100355.63;;;22.27;45.30
46710;BME280;32442;51.514;-0.178;2023-03-18T13:56:32;100346.53;;;22.30;45.50
46710;BME280;32442;51.514;-0.178;2023-03-18T13:59:06;100349.00;;;22.32;45.19
46710;BME280;32442;51.514;-0.178;2023-03-18T14:01:33;100352.66;;;22.32;44.82
46710;BME280;32442;51.514;-0.178;2023-03-18T14:07:20;100349.81;;;22.32;44.85
46710;BME280;32442;51.514;-0.178;2023-03-18T14:12:36;100347.00;;;22.32;44.96
46710;BME280;32442;51.514;-0.178;2023-03-18T14:17:44;100345.34;;;22.31;44.61
46710;BME280;32442;51.514;-0.178;2023-03-18T14:23:26;100354.16;;;22.30;44.84
46710;BME280;32442;51.514;-0.178;2023-03-18T14:25:35;100347.69;;;22.29;44.84
46710;BME280;32442;51.514;-0.178;2023-03-18T14:30:41;100350.84;;;22.28;44.71
46710;BME280;32442;51.514;-0.178;2023-03-18T14:38:17;100354.81;;;22.18;45.00
46710;BME280;32442;51.514;-0.178;2023-03-18T14:40:47;100352.69;;;22.15;45.03